Time;durP1;ratioP1;P1;durP2;ratioP2;P2;SDS_P1;SDS_P2;PMS_P1;PMS_P2;Temp;Humidity;BMP_temperature;BMP_pressure;BME280_temperature;BME280_humidity;BME280_pressure;Samples;Min_cycle;Max_cycle;Signal;HPM_P1;HPM_P2
2022/04/17 06:07:00;;;;;;;1.47;1.07;;;5.80;67.20;;;;;;5068627;28;20571;-70
2022/04/17 06:09:26;;;;;;;2.47;1.40;;;5.80;70.80;;;;;;5050854;28;20323;-70
2022/04/17 06:11:51;;;;;;;2.27;1.70;;;6.00;71.80;;;;;;5048913;28;20247;-71
2022/04/17 06:14:17;;;;;;;2.57;1.90;;;6.30;73.30;;;;;;5048895;28;20197;-70
2022/04/17 06:16:47;;;;;;;3.43;1.73;;;6.50;73.10;;;;;;5050182;28;20246;-70
2022/04/17 06:19:17;;;;;;;1.97;1.73;;;6.80;73.80;;;;;;5046190;28;20273;-71
2022/04/17 06:21:43;;;;;;;2.77;1.80;;;7.10;74.10;;;;;;5047522;28;20217;-72
2022/04/17 06:24:08;;;;;;;2.20;1.80;;;7.30;74.40;;;;;;5041854;28;20205;-69
2022/04/17 06:26:38;;;;;;;2.17;1.50;;;7.50;75.30;;;;;;5045422;28;20209;-69
2022/04/17 06:29:08;;;;;;;2.63;1.60;;;7.70;74.50;;;;;;5048986;28;20206;-72
2022/04/17 06:31:43;;;;;;;2.67;1.70;;;7.90;74.30;;;;;;5083974;28;20205;-71
2022/04/17 06:34:08;;;;;;;2.40;1.80;;;8.10;74.40;;;;;;5050816;28;20173;-72
2022/04/17 06:36:36;;;;;;;1.73;1.30;;;8.20;74.40;;;;;;5041780;28;20178;-71
2022/04/17 06:39:04;;;;;;;2.53;1.60;;;8.40;74.40;;;;;;5050360;28;20297;-71
2022/04/17 06:41:29;;;;;;;2.87;2.13;;;8.50;74.80;;;;;;5050510;28;20181;-66
2022/04/17 06:43:55;;;;;;;2.37;1.70;;;8.70;75.00;;;;;;5044985;28;20208;-67
2022/04/17 06:46:23;;;;;;;1.80;1.50;;;8.80;74.80;;;;;;5042747;28;20197;-67
2022/04/17 06:48:51;;;;;;;2.33;1.57;;;8.80;74.50;;;;;;5083517;28;20177;-66
2022/04/17 06:51:23;;;;;;;2.27;1.80;;;9.00;74.50;;;;;;5049950;28;20189;-66
2022/04/17 06:53:50;;;;;;;2.30;1.50;;;9.10;74.60;;;;;;5049911;28;20169;-66
2022/04/17 06:56:18;;;;;;;1.90;1.70;;;9.10;74.50;;;;;;5049773;28;20197;-66
2022/04/17 06:58:48;;;;;;;1.90;1.50;;;9.20;74.80;;;;;;5049861;28;20201;-66
2022/04/17 07:01:14;;;;;;;3.03;1.80;;;9.30;74.70;;;;;;5038556;28;20249;-66
2022/04/17 07:03:42;;;;;;;3.03;1.67;;;9.40;75.00;;;;;;5046936;28;20185;-66
2022/04/17 07:06:08;;;;;;;1.80;1.33;;;9.40;74.70;;;;;;5048115;28;20209;-66
2022/04/17 07:08:39;;;;;;;1.97;1.27;;;9.50;74.70;;;;;;5049469;28;20193;-66
2022/04/17 07:11:06;;;;;;;2.40;1.40;;;9.60;74.40;;;;;;5049330;28;20197;-66
2022/04/17 07:13:35;;;;;;;2.23;1.60;;;9.70;74.20;;;;;;5049837;28;20173;-64
2022/04/17 07:16:00;;;;;;;1.70;1.50;;;9.80;74.20;;;;;;5044659;28;20275;-66
2022/04/17 07:18:28;;;;;;;2.20;1.40;;;9.90;74.20;;;;;;5032985;28;20182;-66
2022/04/17 07:20:54;;;;;;;1.53;1.40;;;10.00;73.10;;;;;;5066245;28;20301;-65
2022/04/17 07:23:20;;;;;;;2.33;1.70;;;10.10;73.20;;;;;;5029732;28;20233;-65
2022/04/17 07:25:46;;;;;;;2.30;1.53;;;10.20;73.70;;;;;;5029076;28;20208;-66
2022/04/17 07:28:14;;;;;;;1.77;1.30;;;10.30;72.90;;;;;;5033480;28;20190;-66
2022/04/17 07:30:40;;;;;;;1.77;1.30;;;10.40;72.80;;;;;;5028467;28;20170;-66
2022/04/17 07:33:10;;;;;;;2.63;1.50;;;10.50;72.90;;;;;;5033843;28;20265;-65
2022/04/17 07:35:38;;;;;;;2.90;1.43;;;10.50;72.90;;;;;;5035298;28;20464;-66
2022/04/17 07:38:05;;;;;;;2.67;1.50;;;10.60;72.50;;;;;;5035303;28;20250;-65
2022/04/17 07:40:35;;;;;;;2.70;1.20;;;10.80;72.20;;;;;;5035638;28;20198;-66
2022/04/17 07:43:05;;;;;;;1.90;1.30;;;10.80;72.00;;;;;;5035242;28;20181;-65
2022/04/17 07:45:32;;;;;;;2.10;1.30;;;10.90;71.40;;;;;;5031416;28;20201;-66
2022/04/17 07:47:58;;;;;;;2.33;1.47;;;11.00;71.60;;;;;;5027942;28;20189;-65
2022/04/17 07:50:31;;;;;;;1.97;1.30;;;11.10;71.70;;;;;;5026525;28;20166;-65
2022/04/17 07:52:58;;;;;;;1.67;1.30;;;11.20;71.00;;;;;;5033846;28;20201;-66
2022/04/17 07:55:24;;;;;;;2.53;1.40;;;11.30;71.10;;;;;;5033134;28;20303;-67
2022/04/17 07:58:12;;;;;;;2.22;1.35;;;11.30;70.80;;;;;;5035159;28;20187;-66
2022/04/17 08:00:46;;;;;;;1.50;1.10;;;11.40;70.80;;;;;;5032438;28;20178;-66
2022/04/17 08:03:21;;;;;;;2.25;1.35;;;11.50;70.50;;;;;;5026638;28;20185;-66
2022/04/17 08:05:50;;;;;;;1.20;1.10;;;11.60;69.50;;;;;;5034507;28;20237;-66
2022/04/17 08:08:16;;;;;;;1.73;1.30;;;11.70;69.50;;;;;;5034441;28;20185;-67
2022/04/17 08:10:42;;;;;;;2.10;1.40;;;11.80;69.70;;;;;;5043817;28;20178;-66
2022/04/17 08:13:07;;;;;;;2.03;1.20;;;11.90;68.10;;;;;;5026640;28;20203;-66
2022/04/17 08:15:34;;;;;;;2.42;1.50;;;11.90;67.50;;;;;;5031661;28;20186;-66
2022/04/17 08:18:04;;;;;;;2.10;1.40;;;12.00;66.60;;;;;;5016723;28;20293;-67
2022/04/17 08:20:32;;;;;;;2.35;1.60;;;12.00;66.50;;;;;;5033783;28;20211;-66
2022/04/17 08:22:57;;;;;;;1.85;1.58;;;12.10;65.40;;;;;;5034233;28;20174;-62
2022/04/17 08:25:23;;;;;;;2.53;2.00;;;12.10;65.50;;;;;;5030963;28;20309;-66
2022/04/17 08:27:51;;;;;;;3.42;1.48;;;12.20;65.60;;;;;;5034364;28;20232;-66
2022/04/17 08:30:28;;;;;;;1.88;1.45;;;12.30;65.30;;;;;;5032258;28;20202;-65
2022/04/17 08:32:58;;;;;;;2.83;1.45;;;12.40;65.30;;;;;;5034461;28;20205;-66
2022/04/17 08:35:29;;;;;;;1.88;1.40;;;12.40;65.70;;;;;;5032637;28;20178;-66
2022/04/17 08:38:02;;;;;;;1.50;1.10;;;12.50;64.80;;;;;;5032516;28;20170;-66
2022/04/17 08:40:31;;;;;;;1.90;1.30;;;12.50;65.30;;;;;;5030474;28;20171;-67
2022/04/17 08:43:03;;;;;;;2.15;1.27;;;12.60;64.80;;;;;;5016064;28;20235;-65
2022/04/17 08:45:29;;;;;;;1.60;1.27;;;12.60;65.20;;;;;;5066537;28;20201;-67
2022/04/17 08:47:56;;;;;;;2.35;1.50;;;12.70;65.10;;;;;;5032515;28;20197;-66
2022/04/17 08:50:22;;;;;;;1.98;1.40;;;12.80;65.00;;;;;;5031602;28;20178;-66
2022/04/17 08:52:52;;;;;;;1.48;1.23;;;12.90;65.50;;;;;;5025774;28;20194;-63
2022/04/17 08:55:23;;;;;;;3.05;1.20;;;13.00;65.00;;;;;;5031683;28;20198;-67
2022/04/17 08:57:51;;;;;;;3.05;1.50;;;13.00;64.80;;;;;;5024216;28;20272;-67
2022/04/17 09:00:17;;;;;;;2.55;1.67;;;13.10;64.60;;;;;;5036981;28;20187;-68
2022/04/17 09:02:44;;;;;;;2.00;1.10;;;13.20;64.00;;;;;;5054558;28;20284;-67
2022/04/17 09:05:11;;;;;;;2.50;1.27;;;13.30;64.90;;;;;;5037881;28;20210;-67
2022/04/17 09:07:47;;;;;;;1.20;1.05;;;13.40;64.70;;;;;;5030755;28;20286;-68
2022/04/17 09:10:27;;;;;;;2.00;1.13;;;13.50;63.10;;;;;;5014806;28;20155;-68
2022/04/17 09:12:59;;;;;;;1.98;1.10;;;13.60;63.10;;;;;;5033797;28;20289;-67
2022/04/17 09:15:29;;;;;;;1.88;1.23;;;13.60;64.20;;;;;;5033903;28;20205;-67
2022/04/17 09:17:55;;;;;;;1.40;1.17;;;13.70;63.20;;;;;;5033915;28;20186;-67
2022/04/17 09:20:27;;;;;;;1.60;1.20;;;13.80;63.30;;;;;;5026031;28;20331;-67
2022/04/17 09:22:55;;;;;;;1.70;1.23;;;13.90;62.70;;;;;;5028022;28;20198;-68
2022/04/17 09:25:26;;;;;;;2.22;1.20;;;14.00;63.60;;;;;;5035579;28;20209;-67
2022/04/17 09:28:05;;;;;;;2.63;1.25;;;14.00;63.30;;;;;;5037570;28;20313;-68
2022/04/17 09:30:45;;;;;;;1.95;1.38;;;14.10;62.60;;;;;;5031903;28;20170;-68
2022/04/17 09:33:14;;;;;;;1.77;1.55;;;14.20;62.40;;;;;;5031022;28;20255;-69
2022/04/17 09:35:52;;;;;;;2.70;1.20;;;14.30;62.50;;;;;;5039229;28;20205;-67
2022/04/17 09:38:22;;;;;;;1.50;1.10;;;14.40;62.90;;;;;;5044178;28;20222;-67
2022/04/17 09:40:49;;;;;;;1.60;1.00;;;14.50;63.10;;;;;;5032852;28;20339;-66
2022/04/17 09:43:16;;;;;;;1.25;0.90;;;14.60;63.30;;;;;;5032650;28;20178;-66
2022/04/17 09:46:06;;;;;;;1.35;1.17;;;14.70;63.40;;;;;;5055638;28;20193;-67
2022/04/17 09:48:33;;;;;;;1.83;1.08;;;14.70;62.10;;;;;;5031870;28;20255;-67
2022/04/17 09:51:24;;;;;;;2.17;1.20;;;14.80;62.90;;;;;;5026719;28;20241;-65
2022/04/17 09:54:00;;;;;;;1.30;1.00;;;14.90;61.10;;;;;;5024390;28;20269;-66
2022/04/17 09:56:36;;;;;;;1.52;1.10;;;15.00;60.70;;;;;;5049773;28;20178;-67
2022/04/17 09:59:16;;;;;;;1.60;1.10;;;15.10;60.40;;;;;;5029959;28;20247;-66
2022/04/17 10:01:47;;;;;;;2.28;1.15;;;15.20;60.90;;;;;;5033397;28;20215;-67
2022/04/17 10:04:19;;;;;;;1.45;1.10;;;15.30;61.50;;;;;;5033299;28;20174;-66
2022/04/17 10:06:51;;;;;;;1.48;1.20;;;15.50;61.40;;;;;;5029990;28;20234;-67
2022/04/17 10:09:18;;;;;;;1.52;1.10;;;16.00;60.30;;;;;;5044929;28;20231;-65
2022/04/17 10:11:44;;;;;;;1.67;1.00;;;16.50;59.70;;;;;;5028452;28;20206;-67
2022/04/17 10:14:10;;;;;;;4.45;1.10;;;17.10;59.70;;;;;;5023400;28;20275;-65
2022/04/17 10:16:41;;;;;;;1.67;1.00;;;17.70;59.50;;;;;;5030741;28;20174;-67
2022/04/17 10:19:11;;;;;;;3.03;1.00;;;18.30;58.80;;;;;;5032399;28;20216;-68
2022/04/17 10:21:42;;;;;;;1.50;1.08;;;18.80;57.90;;;;;;5030428;28;20197;-69
2022/04/17 10:24:13;;;;;;;1.63;0.95;;;19.30;56.80;;;;;;5041417;28;20212;-67
2022/04/17 10:26:46;;;;;;;2.00;1.05;;;19.60;56.50;;;;;;5028010;28;20527;-67
2022/04/17 10:29:41;;;;;;;1.98;1.10;;;20.00;55.50;;;;;;5031610;28;20196;-67
2022/04/17 10:32:22;;;;;;;1.45;0.98;;;20.30;49.80;;;;;;5054642;28;20182;-66
2022/04/17 10:34:53;;;;;;;1.52;1.10;;;20.50;51.00;;;;;;5032732;28;20181;-66
2022/04/17 10:37:44;;;;;;;1.88;1.08;;;20.70;53.40;;;;;;5033099;28;20269;-65
2022/04/17 10:40:14;;;;;;;2.67;0.90;;;20.80;52.30;;;;;;5038153;28;20286;-67
2022/04/17 10:42:58;;;;;;;1.92;1.15;;;21.00;52.00;;;;;;5032024;28;20217;-66
2022/04/17 10:45:25;;;;;;;2.22;0.98;;;21.10;50.60;;;;;;5022286;28;20205;-67
2022/04/17 10:48:11;;;;;;;1.95;1.38;;;21.20;52.70;;;;;;5031769;28;20234;-66
2022/04/17 10:50:50;;;;;;;1.65;1.00;;;21.40;49.10;;;;;;5030967;28;20212;-67
2022/04/17 10:53:29;;;;;;;2.20;1.15;;;21.50;48.70;;;;;;5042172;28;20201;-66
2022/04/17 10:56:08;;;;;;;1.33;1.08;;;21.50;48.30;;;;;;5036957;28;20205;-67
2022/04/17 10:58:41;;;;;;;1.42;0.98;;;21.50;45.40;;;;;;5037269;28;20189;-67
2022/04/17 11:01:08;;;;;;;1.88;1.08;;;21.50;49.00;;;;;;5017456;28;20199;-67
2022/04/17 11:03:37;;;;;;;1.23;1.08;;;21.50;49.40;;;;;;5032094;28;20170;-65
2022/04/17 11:06:30;;;;;;;1.55;1.02;;;21.60;48.00;;;;;;5032818;28;20194;-66
2022/04/17 11:09:03;;;;;;;1.27;0.90;;;21.70;45.30;;;;;;5036463;28;20174;-67
2022/04/17 11:11:47;;;;;;;1.63;1.00;;;21.80;47.40;;;;;;5035009;28;20178;-69
2022/04/17 11:14:16;;;;;;;1.40;0.90;;;21.80;43.80;;;;;;5037417;28;20206;-67
2022/04/17 11:16:51;;;;;;;1.55;0.93;;;21.90;47.20;;;;;;5034953;28;20380;-67
2022/04/17 11:19:19;;;;;;;1.48;1.00;;;21.80;46.40;;;;;;5034831;28;20206;-67
2022/04/17 11:21:47;;;;;;;1.10;0.90;;;21.80;47.00;;;;;;5034684;28;20185;-66
2022/04/17 11:24:13;;;;;;;2.35;1.08;;;21.80;47.30;;;;;;5032118;28;20189;-65
2022/04/17 11:26:52;;;;;;;1.40;0.90;;;21.80;45.30;;;;;;5032249;28;20207;-66
2022/04/17 11:29:37;;;;;;;1.10;0.77;;;21.80;44.80;;;;;;5017335;28;20175;-64
2022/04/17 11:32:18;;;;;;;2.38;0.95;;;21.70;44.40;;;;;;5028715;28;20186;-65
2022/04/17 11:34:54;;;;;;;1.45;0.80;;;21.70;46.40;;;;;;5015973;28;20225;-66
2022/04/17 11:37:21;;;;;;;1.63;0.82;;;21.80;46.60;;;;;;5029210;28;20173;-66
2022/04/17 11:39:48;;;;;;;1.30;0.82;;;21.80;48.00;;;;;;5034428;28;20284;-67
2022/04/17 11:42:14;;;;;;;1.60;0.90;;;22.00;47.50;;;;;;5044427;28;20205;-67
2022/04/17 11:44:48;;;;;;;1.00;0.80;;;22.00;46.90;;;;;;5034988;28;20231;-67
2022/04/17 11:47:19;;;;;;;1.05;0.80;;;22.10;46.10;;;;;;5029421;28;20214;-66
2022/04/17 11:49:48;;;;;;;1.23;0.88;;;22.20;46.80;;;;;;5032219;28;20182;-67
2022/04/17 11:52:19;;;;;;;1.02;0.75;;;22.20;46.00;;;;;;5029898;28;20182;-66
2022/04/17 11:54:50;;;;;;;2.03;1.10;;;22.20;46.20;;;;;;5030586;28;20189;-65
2022/04/17 11:57:19;;;;;;;1.25;0.93;;;22.20;44.90;;;;;;5033741;28;20186;-66
2022/04/17 11:59:48;;;;;;;2.22;0.93;;;22.30;45.70;;;;;;5033596;28;20189;-66
2022/04/17 12:02:21;;;;;;;0.95;0.73;;;22.30;46.00;;;;;;5024433;28;20198;-67
2022/04/17 12:05:05;;;;;;;0.70;0.60;;;22.40;45.20;;;;;;5033506;28;20305;-66
2022/04/17 12:07:31;;;;;;;1.48;0.80;;;22.40;45.10;;;;;;5034087;28;20212;-65
2022/04/17 12:10:08;;;;;;;1.25;0.85;;;22.50;46.00;;;;;;5064345;28;20170;-66
2022/04/17 12:12:41;;;;;;;1.38;1.13;;;22.60;45.20;;;;;;5032256;28;20236;-66
2022/04/17 12:15:11;;;;;;;1.45;1.20;;;22.60;43.10;;;;;;5030993;28;20214;-66
2022/04/17 12:21:09;;;;;;;1.42;0.80;;;22.70;43.50;;;;;;5033110;28;20178;-67
2022/04/17 12:23:35;;;;;;;1.83;0.90;;;22.80;45.50;;;;;;5034426;28;20178;-67
2022/04/17 12:26:09;;;;;;;1.85;1.00;;;22.80;45.50;;;;;;5031140;28;20210;-68
2022/04/17 12:28:37;;;;;;;1.13;0.73;;;22.90;44.80;;;;;;5033969;28;20206;-68
2022/04/17 12:31:03;;;;;;;1.95;0.82;;;23.00;44.50;;;;;;5048892;28;20193;-68
2022/04/17 12:33:29;;;;;;;1.30;0.88;;;23.00;45.10;;;;;;5030870;28;20186;-66
2022/04/17 12:36:04;;;;;;;0.95;0.70;;;23.00;44.30;;;;;;5015692;28;20206;-67
2022/04/17 12:38:30;;;;;;;1.73;1.10;;;23.10;42.50;;;;;;5034438;28;20213;-69
2022/04/17 12:40:57;;;;;;;1.58;0.95;;;23.00;40.70;;;;;;5034395;28;20227;-68
2022/04/17 12:43:28;;;;;;;1.23;1.00;;;23.00;41.70;;;;;;5015194;28;20178;-67
2022/04/17 12:46:06;;;;;;;1.58;0.95;;;23.00;41.60;;;;;;5028780;28;20192;-67
2022/04/17 12:48:34;;;;;;;1.55;0.80;;;23.00;42.70;;;;;;5034591;28;20243;-67
2022/04/17 12:51:09;;;;;;;0.85;0.75;;;23.00;42.20;;;;;;5028702;28;20171;-68
2022/04/17 12:53:42;;;;;;;0.80;0.75;;;23.10;41.60;;;;;;5025195;28;20179;-68
2022/04/17 12:56:10;;;;;;;1.88;0.90;;;23.10;41.00;;;;;;5033966;28;20286;-68
2022/04/17 12:59:07;;;;;;;1.33;0.80;;;23.10;40.80;;;;;;5034290;28;20174;-67
2022/04/17 13:01:47;;;;;;;1.33;1.00;;;23.20;40.80;;;;;;5052702;28;20220;-66
2022/04/17 13:04:23;;;;;;;1.40;0.80;;;23.30;41.80;;;;;;5030876;28;20213;-65
2022/04/17 13:07:07;;;;;;;1.05;0.80;;;23.40;40.60;;;;;;5021202;28;20204;-66
2022/04/17 13:09:37;;;;;;;1.17;0.70;;;23.50;40.70;;;;;;5034051;28;20186;-65
2022/04/17 13:12:07;;;;;;;0.75;0.70;;;23.60;39.30;;;;;;5033637;28;20186;-66
2022/04/17 13:14:33;;;;;;;1.13;0.70;;;23.60;39.70;;;;;;5032663;28;20178;-65
2022/04/17 13:17:07;;;;;;;0.68;0.60;;;23.60;39.30;;;;;;5033794;28;20198;-67
2022/04/17 13:19:35;;;;;;;0.98;0.65;;;23.60;38.70;;;;;;5024761;28;20178;-67
2022/04/17 13:22:01;;;;;;;0.90;0.70;;;23.60;39.90;;;;;;5016384;28;20179;-67
2022/04/17 13:24:30;;;;;;;1.63;0.80;;;23.60;39.70;;;;;;5032359;28;20184;-63
2022/04/17 13:27:03;;;;;;;1.10;0.70;;;23.70;39.90;;;;;;5033634;28;20259;-67
2022/04/17 13:29:30;;;;;;;1.63;0.70;;;23.80;39.90;;;;;;5033634;28;20283;-67
2022/04/17 13:31:56;;;;;;;1.23;0.82;;;23.90;38.90;;;;;;5033758;28;20175;-67
2022/04/17 13:34:26;;;;;;;1.52;0.70;;;23.90;38.60;;;;;;5032992;28;20189;-67
2022/04/17 13:38:11;;;;;;;1.88;1.08;;;24.00;39.20;;;;;;5027902;28;20228;-67
2022/04/17 13:39:38;;;;;;;1.15;1.02;;;24.10;39.60;;;;;;5034298;28;20360;-66
2022/04/17 13:42:04;;;;;;;1.27;0.82;;;24.10;40.10;;;;;;5032141;28;20207;-66
2022/04/17 13:44:32;;;;;;;0.88;0.77;;;24.20;38.60;;;;;;5031225;28;20178;-67
2022/04/17 13:46:57;;;;;;;0.98;0.68;;;24.30;37.90;;;;;;5032879;28;20544;-66
2022/04/17 13:49:28;;;;;;;0.98;0.60;;;24.30;38.80;;;;;;5032794;28;20173;-67
2022/04/17 13:51:58;;;;;;;1.40;0.82;;;24.40;38.80;;;;;;5033117;28;20184;-67
2022/04/17 13:54:24;;;;;;;1.02;0.82;;;24.50;38.20;;;;;;5033442;28;20181;-67
2022/04/17 13:56:49;;;;;;;1.67;0.93;;;24.50;39.00;;;;;;5031739;28;20190;-67
2022/04/17 13:59:17;;;;;;;1.00;0.80;;;24.60;37.40;;;;;;5034942;28;20173;-67
2022/04/17 14:01:45;;;;;;;0.90;0.80;;;24.70;38.30;;;;;;5053527;28;20268;-67
2022/04/17 14:04:11;;;;;;;1.30;0.80;;;24.70;37.10;;;;;;5039299;28;20282;-66
2022/04/17 14:06:37;;;;;;;1.40;0.80;;;24.70;37.60;;;;;;5032946;28;20248;-66
2022/04/17 14:09:04;;;;;;;1.42;0.80;;;24.70;37.10;;;;;;5032145;28;20193;-67
2022/04/17 14:11:30;;;;;;;1.23;0.80;;;24.70;37.90;;;;;;5033019;28;20209;-67
2022/04/17 14:13:57;;;;;;;2.80;2.17;;;24.70;37.30;;;;;;5033855;28;20213;-67
2022/04/17 14:16:25;;;;;;;2.47;1.90;;;24.70;37.00;;;;;;5033137;28;20212;-67
2022/04/17 14:18:51;;;;;;;1.35;1.10;;;24.80;37.20;;;;;;5033162;28;20173;-67
2022/04/17 14:21:21;;;;;;;1.50;1.00;;;24.80;38.30;;;;;;5032956;28;20208;-67
2022/04/17 14:23:46;;;;;;;0.95;0.70;;;24.90;36.50;;;;;;5029176;28;20224;-67
2022/04/17 14:26:12;;;;;;;1.23;0.80;;;24.90;36.20;;;;;;5028646;28;20198;-68
2022/04/17 14:28:38;;;;;;;1.50;0.88;;;24.90;36.90;;;;;;5036267;28;20209;-68
2022/04/17 14:31:05;;;;;;;2.75;0.88;;;24.90;37.00;;;;;;5019102;28;20297;-67
2022/04/17 14:33:31;;;;;;;1.80;1.33;;;24.90;36.60;;;;;;5036836;28;20182;-68
2022/04/17 14:35:59;;;;;;;1.95;1.20;;;24.90;35.70;;;;;;5032379;28;20197;-64
2022/04/17 14:38:25;;;;;;;1.33;0.98;;;24.90;35.60;;;;;;5071481;28;20173;-67
2022/04/17 14:40:52;;;;;;;1.20;1.10;;;24.90;36.10;;;;;;5036371;28;20163;-68
2022/04/17 14:43:17;;;;;;;1.00;0.75;;;24.80;34.50;;;;;;5036519;28;20242;-67
2022/04/17 14:45:47;;;;;;;1.10;0.80;;;24.80;35.20;;;;;;5036268;28;20229;-67
2022/04/17 14:48:13;;;;;;;1.88;0.90;;;24.80;35.00;;;;;;5034761;28;20246;-67
2022/04/17 14:50:46;;;;;;;2.67;0.95;;;24.80;34.30;;;;;;5036216;28;20276;-66
2022/04/17 14:53:12;;;;;;;1.00;0.80;;;24.80;35.40;;;;;;5036279;28;20275;-68
2022/04/17 14:55:44;;;;;;;1.35;0.80;;;24.80;35.70;;;;;;5036420;28;20212;-67
2022/04/17 14:58:09;;;;;;;0.98;0.70;;;24.80;35.70;;;;;;5035300;28;20178;-68
2022/04/17 15:00:35;;;;;;;1.40;0.90;;;24.90;35.70;;;;;;5032358;28;20188;-68
2022/04/17 15:03:04;;;;;;;1.23;0.73;;;24.90;35.20;;;;;;5036781;28;20275;-68
2022/04/17 15:05:30;;;;;;;0.95;0.80;;;25.00;35.00;;;;;;5036291;28;20217;-68
2022/04/17 15:07:55;;;;;;;1.10;0.80;;;25.00;35.10;;;;;;5036444;28;20247;-68
2022/04/17 15:10:23;;;;;;;1.90;0.90;;;25.00;35.30;;;;;;5035761;28;20227;-67
2022/04/17 15:12:49;;;;;;;1.27;0.90;;;25.00;32.10;;;;;;5036268;28;20188;-68
2022/04/17 15:15:17;;;;;;;1.30;0.90;;;25.00;32.50;;;;;;5054333;28;20214;-68
2022/04/17 15:17:43;;;;;;;1.20;0.80;;;24.90;32.20;;;;;;5034553;28;20213;-68
2022/04/17 15:20:09;;;;;;;0.82;0.70;;;24.80;32.60;;;;;;5036362;28;20260;-67
2022/04/17 15:22:35;;;;;;;0.98;0.80;;;24.70;32.70;;;;;;5023705;28;20181;-68
2022/04/17 15:25:06;;;;;;;1.13;0.80;;;24.70;33.30;;;;;;5033127;28;20189;-68
2022/04/17 15:27:34;;;;;;;1.00;0.60;;;24.60;32.90;;;;;;5035841;28;20206;-68
2022/04/17 15:30:00;;;;;;;1.13;0.80;;;24.70;32.20;;;;;;5017850;28;20217;-68
2022/04/17 15:32:28;;;;;;;0.80;0.70;;;24.70;32.00;;;;;;5018647;28;20175;-67
2022/04/17 15:34:53;;;;;;;1.23;0.70;;;24.60;32.00;;;;;;5035787;28;20170;-68
2022/04/17 15:37:21;;;;;;;1.08;0.70;;;24.60;32.80;;;;;;5035726;28;20220;-67
2022/04/17 15:39:47;;;;;;;1.08;0.70;;;24.60;32.90;;;;;;5035729;28;20185;-67
2022/04/17 15:42:12;;;;;;;1.67;0.88;;;24.60;33.30;;;;;;5023556;28;20167;-68
2022/04/17 15:50:16;;;;;;;2.28;0.82;;;24.50;32.50;;;;;;5036473;28;20265;-67
2022/04/17 15:52:42;;;;;;;1.10;0.80;;;24.50;32.60;;;;;;5035252;28;20175;-67
2022/04/17 15:55:07;;;;;;;1.00;0.70;;;24.50;33.00;;;;;;5035170;28;20178;-67
2022/04/17 15:57:34;;;;;;;1.48;0.70;;;24.40;33.30;;;;;;5028735;28;20228;-67
2022/04/17 16:00:06;;;;;;;1.13;0.80;;;24.40;32.60;;;;;;5017524;28;20341;-68
2022/04/17 16:02:34;;;;;;;1.38;1.10;;;24.40;33.30;;;;;;5035372;28;20194;-66
2022/04/17 16:05:03;;;;;;;2.83;2.17;;;24.30;33.30;;;;;;5035482;28;20201;-67
2022/04/17 16:07:31;;;;;;;1.45;1.08;;;24.30;32.70;;;;;;5035345;28;20174;-67
2022/04/17 16:09:57;;;;;;;1.55;0.98;;;24.30;33.20;;;;;;5048712;28;20181;-66
2022/04/17 16:12:23;;;;;;;1.15;0.77;;;24.30;32.90;;;;;;5024405;28;20178;-67
2022/04/17 16:14:48;;;;;;;1.45;0.90;;;24.20;32.80;;;;;;5035338;28;20200;-67
2022/04/17 16:17:16;;;;;;;1.10;0.80;;;24.10;33.10;;;;;;5018312;28;20454;-67
2022/04/17 16:19:44;;;;;;;1.48;0.98;;;24.00;32.80;;;;;;5035052;28;20413;-67
2022/04/17 16:22:12;;;;;;;0.90;0.68;;;23.90;32.90;;;;;;5029515;28;20265;-66
2022/04/17 16:24:37;;;;;;;2.17;1.10;;;23.70;32.80;;;;;;5033658;28;20178;-64
2022/04/17 16:27:03;;;;;;;1.40;0.93;;;23.60;32.20;;;;;;5034799;28;20170;-66
2022/04/17 16:29:29;;;;;;;3.17;0.90;;;23.40;31.60;;;;;;5034221;28;20189;-66
2022/04/17 16:31:55;;;;;;;0.82;0.73;;;23.10;32.00;;;;;;5022541;28;20193;-66
2022/04/17 16:34:25;;;;;;;1.20;0.85;;;22.90;32.00;;;;;;5034576;28;20178;-65
2022/04/17 16:36:50;;;;;;;1.08;0.98;;;22.70;32.20;;;;;;5034556;28;20213;-65
2022/04/17 16:39:16;;;;;;;1.17;0.77;;;22.60;32.70;;;;;;5034252;28;20197;-66
2022/04/17 16:41:42;;;;;;;1.58;0.98;;;22.40;32.40;;;;;;5028806;28;20485;-66
2022/04/17 16:44:10;;;;;;;1.17;0.80;;;22.30;31.90;;;;;;5034847;28;20166;-66
2022/04/17 16:46:35;;;;;;;1.20;0.80;;;22.20;32.30;;;;;;5034600;28;20240;-66
2022/04/17 16:49:01;;;;;;;1.50;0.90;;;22.10;32.50;;;;;;5034374;28;20181;-67
2022/04/17 16:51:27;;;;;;;0.93;0.82;;;22.10;32.70;;;;;;5030194;28;20202;-67
2022/04/17 16:53:54;;;;;;;1.38;0.80;;;22.00;32.90;;;;;;5026139;28;20217;-67
2022/04/17 16:56:20;;;;;;;1.02;0.85;;;21.90;33.10;;;;;;5033884;28;20252;-67
2022/04/17 17:01:32;;;;;;;1.20;0.90;;;21.70;32.80;;;;;;5033259;28;20225;-67
2022/04/17 17:03:58;;;;;;;1.10;0.80;;;21.60;32.70;;;;;;5033626;28;20240;-66
2022/04/17 17:06:29;;;;;;;0.80;0.70;;;21.50;32.80;;;;;;5033200;28;20464;-66
2022/04/17 17:08:57;;;;;;;1.02;0.73;;;21.40;32.70;;;;;;5034212;28;20231;-67
2022/04/17 17:11:25;;;;;;;1.25;1.00;;;21.30;33.00;;;;;;5030318;28;20202;-67
2022/04/17 17:13:51;;;;;;;1.05;0.80;;;21.30;33.00;;;;;;5015711;28;20240;-67
2022/04/17 17:16:19;;;;;;;1.13;0.88;;;21.20;33.20;;;;;;5030435;28;20202;-67
2022/04/17 17:18:45;;;;;;;0.80;0.77;;;21.20;33.10;;;;;;5031376;28;20286;-67
2022/04/17 17:21:12;;;;;;;1.42;1.00;;;21.10;33.30;;;;;;5034046;28;20190;-66
2022/04/17 17:23:38;;;;;;;1.45;1.08;;;21.10;33.20;;;;;;5031053;28;20174;-67
2022/04/17 17:26:03;;;;;;;1.92;1.13;;;21.10;33.30;;;;;;5023489;28;20181;-67
2022/04/17 17:28:29;;;;;;;1.10;1.00;;;21.10;33.60;;;;;;5014816;28;20210;-66
2022/04/17 17:30:59;;;;;;;1.33;1.13;;;21.10;33.10;;;;;;5034007;28;20182;-67
2022/04/17 17:33:30;;;;;;;1.85;1.10;;;21.10;33.30;;;;;;5025632;28;20182;-66
2022/04/17 17:36:02;;;;;;;2.10;1.40;;;21.10;33.50;;;;;;5032441;28;20220;-67
2022/04/17 17:38:33;;;;;;;1.40;1.08;;;21.10;33.70;;;;;;5033754;28;20159;-67
2022/04/17 17:40:59;;;;;;;1.58;0.98;;;21.10;33.50;;;;;;5064633;28;20245;-67
2022/04/17 17:43:27;;;;;;;1.67;1.10;;;21.00;33.50;;;;;;5025140;28;20285;-67
2022/04/17 17:45:58;;;;;;;1.92;1.30;;;21.00;33.50;;;;;;5022328;28;20206;-67
2022/04/17 17:48:26;;;;;;;1.17;1.05;;;20.90;33.50;;;;;;5014830;28;20166;-67
2022/04/17 17:50:54;;;;;;;2.28;1.10;;;20.90;33.30;;;;;;5026064;28;20186;-67
2022/04/17 17:53:19;;;;;;;2.03;1.20;;;20.70;33.30;;;;;;5034308;28;20198;-66
2022/04/17 17:55:45;;;;;;;1.77;1.17;;;20.60;33.10;;;;;;5032067;28;20202;-67
2022/04/17 17:58:11;;;;;;;1.48;1.10;;;20.50;33.30;;;;;;5033448;28;20375;-67
2022/04/17 18:00:40;;;;;;;6.05;4.32;;;20.40;33.30;;;;;;5022473;28;20179;-66
2022/04/17 18:03:06;;;;;;;3.13;2.50;;;20.30;33.30;;;;;;5021927;28;20257;-67
2022/04/17 18:05:32;;;;;;;3.05;2.10;;;20.20;33.50;;;;;;5023129;28;20275;-67
2022/04/17 18:16:14;;;;;;;3.83;2.80;;;19.70;33.50;;;;;;5033777;28;20205;-66
2022/04/17 18:18:45;;;;;;;5.10;2.70;;;19.50;33.50;;;;;;5045486;28;20197;-67
2022/04/17 18:21:16;;;;;;;2.85;2.13;;;19.40;33.60;;;;;;5040961;28;20170;-65
2022/04/17 18:23:45;;;;;;;4.78;3.28;;;19.30;33.70;;;;;;5027355;28;20178;-66
2022/04/17 18:26:13;;;;;;;4.07;2.92;;;19.20;33.90;;;;;;5013813;28;20213;-67
2022/04/17 18:28:42;;;;;;;2.78;2.28;;;19.10;34.00;;;;;;5032773;28;20182;-69
2022/04/17 18:31:12;;;;;;;2.53;1.90;;;18.90;33.90;;;;;;5032692;28;20178;-66
2022/04/17 18:33:38;;;;;;;2.03;1.70;;;18.80;33.90;;;;;;5032372;28;20170;-67
2022/04/17 18:36:06;;;;;;;1.85;1.48;;;18.80;34.10;;;;;;5032896;28;20427;-67
2022/04/17 18:38:33;;;;;;;1.90;1.50;;;18.70;34.10;;;;;;5031088;28;20176;-68
2022/04/17 18:41:01;;;;;;;2.58;1.50;;;18.60;34.20;;;;;;5032695;28;20180;-68
2022/04/17 18:43:30;;;;;;;1.60;1.30;;;18.50;34.20;;;;;;5032711;28;20194;-67
2022/04/17 18:46:00;;;;;;;2.78;1.40;;;18.40;34.40;;;;;;5032520;28;20228;-67
2022/04/17 18:48:30;;;;;;;2.55;1.52;;;18.30;34.40;;;;;;5051859;28;20509;-66
2022/04/17 18:50:56;;;;;;;3.58;1.80;;;18.30;34.50;;;;;;5029210;28;20220;-67
2022/04/17 18:53:21;;;;;;;5.43;3.60;;;18.20;34.50;;;;;;5013012;28;20194;-67
2022/04/17 18:55:49;;;;;;;4.53;3.28;;;18.10;34.50;;;;;;5032771;28;20220;-67
2022/04/17 18:58:16;;;;;;;4.47;3.05;;;18.00;34.60;;;;;;5032367;28;20174;-68
2022/04/17 19:00:42;;;;;;;5.32;3.60;;;17.90;34.60;;;;;;5032207;28;20190;-67
2022/04/17 19:03:07;;;;;;;6.03;3.40;;;17.90;34.70;;;;;;5033333;28;20257;-68
2022/04/17 19:05:35;;;;;;;5.07;3.13;;;17.80;34.80;;;;;;5032557;28;20190;-68
2022/04/17 19:08:01;;;;;;;5.47;3.70;;;17.80;34.90;;;;;;5032883;28;20174;-67
2022/04/17 19:10:27;;;;;;;4.57;3.00;;;17.70;34.90;;;;;;5032865;28;20173;-68
2022/04/17 19:15:41;;;;;;;5.70;3.85;;;17.60;35.30;;;;;;5037267;28;20248;-68
2022/04/17 19:18:07;;;;;;;5.03;3.72;;;17.50;35.30;;;;;;5035906;28;20220;-67
2022/04/17 19:20:36;;;;;;;5.10;3.38;;;17.40;35.40;;;;;;5032789;28;20234;-67
2022/04/17 19:23:02;;;;;;;5.43;3.40;;;17.40;35.40;;;;;;5020234;28;20174;-67
2022/04/17 19:25:30;;;;;;;5.15;3.33;;;17.30;35.50;;;;;;5033002;28;20195;-69
2022/04/17 19:27:57;;;;;;;5.40;3.20;;;17.20;35.50;;;;;;5036131;28;20220;-68